sensor_id;sensor_type;location;lat;lon;timestamp;P1;durP1;ratioP1;P2;durP2;ratioP2
50267;SDS011;36153;50.960;6.220;2023-04-03T00:01:59;4.82;;;3.53;;
50267;SDS011;36153;50.960;6.220;2023-04-03T00:05:00;4.78;;;4.28;;
50267;SDS011;36153;50.960;6.220;2023-04-03T00:08:01;4.15;;;3.30;;
50267;SDS011;36153;50.960;6.220;2023-04-03T00:11:02;4.63;;;3.40;;
50267;SDS011;36153;50.960;6.220;2023-04-03T00:14:03;4.68;;;3.22;;
50267;SDS011;36153;50.960;6.220;2023-04-03T00:17:04;5.53;;;3.35;;
50267;SDS011;36153;50.960;6.220;2023-04-03T00:20:04;7.40;;;3.70;;
50267;SDS011;36153;50.960;6.220;2023-04-03T00:23:06;4.07;;;3.45;;
50267;SDS011;36153;50.960;6.220;2023-04-03T00:26:09;4.53;;;3.83;;
50267;SDS011;36153;50.960;6.220;2023-04-03T00:29:09;5.38;;;2.92;;
50267;SDS011;36153;50.960;6.220;2023-04-03T00:32:10;3.90;;;3.05;;
50267;SDS011;36153;50.960;6.220;2023-04-03T00:35:10;4.90;;;2.90;;
50267;SDS011;36153;50.960;6.220;2023-04-03T00:38:11;5.22;;;3.15;;
50267;SDS011;36153;50.960;6.220;2023-04-03T00:41:12;5.72;;;3.30;;
50267;SDS011;36153;50.960;6.220;2023-04-03T00:47:28;4.35;;;2.65;;
50267;SDS011;36153;50.960;6.220;2023-04-03T00:50:30;3.85;;;2.90;;
50267;SDS011;36153;50.960;6.220;2023-04-03T00:53:33;4.53;;;3.08;;
50267;SDS011;36153;50.960;6.220;2023-04-03T00:56:38;4.13;;;2.72;;
50267;SDS011;36153;50.960;6.220;2023-04-03T00:59:40;4.03;;;2.92;;
50267;SDS011;36153;50.960;6.220;2023-04-03T01:02:44;7.78;;;3.10;;
50267;SDS011;36153;50.960;6.220;2023-04-03T01:05:45;4.85;;;3.05;;
50267;SDS011;36153;50.960;6.220;2023-04-03T01:08:46;3.78;;;3.00;;
50267;SDS011;36153;50.960;6.220;2023-04-03T01:11:49;6.22;;;3.45;;
50267;SDS011;36153;50.960;6.220;2023-04-03T01:14:51;8.77;;;3.33;;
50267;SDS011;36153;50.960;6.220;2023-04-03T01:17:54;8.65;;;3.53;;
50267;SDS011;36153;50.960;6.220;2023-04-03T01:24:31;4.60;;;2.85;;
50267;SDS011;36153;50.960;6.220;2023-04-03T01:27:36;4.38;;;2.90;;
50267;SDS011;36153;50.960;6.220;2023-04-03T01:30:44;5.43;;;3.13;;
50267;SDS011;36153;50.960;6.220;2023-04-03T01:33:50;4.50;;;2.95;;
50267;SDS011;36153;50.960;6.220;2023-04-03T01:36:50;5.20;;;3.30;;
50267;SDS011;36153;50.960;6.220;2023-04-03T01:39:52;4.80;;;3.60;;
50267;SDS011;36153;50.960;6.220;2023-04-03T01:42:52;9.18;;;3.63;;
50267;SDS011;36153;50.960;6.220;2023-04-03T01:45:52;6.85;;;3.30;;
50267;SDS011;36153;50.960;6.220;2023-04-03T01:48:54;6.50;;;3.65;;
50267;SDS011;36153;50.960;6.220;2023-04-03T01:51:55;4.60;;;3.67;;
50267;SDS011;36153;50.960;6.220;2023-04-03T01:54:55;6.90;;;3.80;;
50267;SDS011;36153;50.960;6.220;2023-04-03T01:57:55;4.30;;;3.55;;
50267;SDS011;36153;50.960;6.220;2023-04-03T02:00:56;4.55;;;4.03;;
50267;SDS011;36153;50.960;6.220;2023-04-03T02:03:56;5.85;;;4.10;;
50267;SDS011;36153;50.960;6.220;2023-04-03T02:06:56;5.45;;;3.75;;
50267;SDS011;36153;50.960;6.220;2023-04-03T02:09:57;7.25;;;4.55;;
50267;SDS011;36153;50.960;6.220;2023-04-03T02:12:57;5.03;;;3.67;;
50267;SDS011;36153;50.960;6.220;2023-04-03T02:15:58;7.72;;;3.53;;
50267;SDS011;36153;50.960;6.220;2023-04-03T02:18:59;6.65;;;4.28;;
50267;SDS011;36153;50.960;6.220;2023-04-03T02:21:59;6.97;;;3.83;;
50267;SDS011;36153;50.960;6.220;2023-04-03T02:24:59;7.57;;;4.13;;
50267;SDS011;36153;50.960;6.220;2023-04-03T02:28:00;5.88;;;3.47;;
50267;SDS011;36153;50.960;6.220;2023-04-03T02:31:01;6.82;;;3.92;;
50267;SDS011;36153;50.960;6.220;2023-04-03T02:34:02;8.43;;;3.67;;
50267;SDS011;36153;50.960;6.220;2023-04-03T02:37:02;6.32;;;3.60;;
50267;SDS011;36153;50.960;6.220;2023-04-03T02:40:03;7.57;;;4.20;;
50267;SDS011;36153;50.960;6.220;2023-04-03T02:43:05;4.05;;;3.20;;
50267;SDS011;36153;50.960;6.220;2023-04-03T02:46:05;6.38;;;3.67;;
50267;SDS011;36153;50.960;6.220;2023-04-03T02:49:06;3.83;;;2.97;;
50267;SDS011;36153;50.960;6.220;2023-04-03T02:52:06;4.38;;;3.72;;
50267;SDS011;36153;50.960;6.220;2023-04-03T02:55:07;6.35;;;3.83;;
50267;SDS011;36153;50.960;6.220;2023-04-03T02:58:07;7.05;;;4.45;;
50267;SDS011;36153;50.960;6.220;2023-04-03T03:01:08;5.47;;;3.67;;
50267;SDS011;36153;50.960;6.220;2023-04-03T03:04:08;6.47;;;4.60;;
50267;SDS011;36153;50.960;6.220;2023-04-03T03:07:09;9.25;;;5.13;;
50267;SDS011;36153;50.960;6.220;2023-04-03T03:10:10;8.18;;;4.88;;
50267;SDS011;36153;50.960;6.220;2023-04-03T03:13:10;9.68;;;5.45;;
50267;SDS011;36153;50.960;6.220;2023-04-03T03:16:10;7.30;;;5.18;;
50267;SDS011;36153;50.960;6.220;2023-04-03T03:19:11;8.38;;;5.45;;
50267;SDS011;36153;50.960;6.220;2023-04-03T03:22:13;7.32;;;5.50;;
50267;SDS011;36153;50.960;6.220;2023-04-03T03:25:14;13.20;;;5.80;;
50267;SDS011;36153;50.960;6.220;2023-04-03T03:28:14;10.50;;;5.38;;
50267;SDS011;36153;50.960;6.220;2023-04-03T03:31:15;7.32;;;5.03;;
50267;SDS011;36153;50.960;6.220;2023-04-03T03:34:15;8.43;;;4.82;;
50267;SDS011;36153;50.960;6.220;2023-04-03T03:37:16;5.82;;;4.32;;
50267;SDS011;36153;50.960;6.220;2023-04-03T03:40:16;9.35;;;4.75;;
50267;SDS011;36153;50.960;6.220;2023-04-03T03:43:18;5.68;;;3.85;;
50267;SDS011;36153;50.960;6.220;2023-04-03T03:46:18;7.03;;;4.82;;
50267;SDS011;36153;50.960;6.220;2023-04-03T03:49:18;6.65;;;4.60;;
50267;SDS011;36153;50.960;6.220;2023-04-03T03:52:19;10.05;;;4.78;;
50267;SDS011;36153;50.960;6.220;2023-04-03T03:55:19;9.70;;;5.35;;
50267;SDS011;36153;50.960;6.220;2023-04-03T03:58:22;7.22;;;4.47;;
50267;SDS011;36153;50.960;6.220;2023-04-03T04:01:23;6.43;;;4.38;;
50267;SDS011;36153;50.960;6.220;2023-04-03T04:04:24;5.65;;;4.38;;
50267;SDS011;36153;50.960;6.220;2023-04-03T04:07:24;6.20;;;4.15;;
50267;SDS011;36153;50.960;6.220;2023-04-03T04:10:27;7.97;;;4.47;;
50267;SDS011;36153;50.960;6.220;2023-04-03T04:13:28;5.93;;;4.35;;
50267;SDS011;36153;50.960;6.220;2023-04-03T04:16:28;7.57;;;4.53;;
50267;SDS011;36153;50.960;6.220;2023-04-03T04:19:29;8.25;;;4.55;;
50267;SDS011;36153;50.960;6.220;2023-04-03T04:22:29;9.65;;;4.38;;
50267;SDS011;36153;50.960;6.220;2023-04-03T04:25:29;6.15;;;4.55;;
50267;SDS011;36153;50.960;6.220;2023-04-03T04:28:30;5.20;;;4.32;;
50267;SDS011;36153;50.960;6.220;2023-04-03T04:31:30;6.10;;;4.95;;
50267;SDS011;36153;50.960;6.220;2023-04-03T04:34:30;8.00;;;4.72;;
50267;SDS011;36153;50.960;6.220;2023-04-03T04:37:31;5.95;;;4.40;;
50267;SDS011;36153;50.960;6.220;2023-04-03T04:40:32;9.35;;;4.43;;
50267;SDS011;36153;50.960;6.220;2023-04-03T04:43:32;8.07;;;4.45;;
50267;SDS011;36153;50.960;6.220;2023-04-03T04:46:33;6.68;;;4.63;;
50267;SDS011;36153;50.960;6.220;2023-04-03T04:49:33;6.43;;;4.18;;
50267;SDS011;36153;50.960;6.220;2023-04-03T04:52:34;10.00;;;5.03;;
50267;SDS011;36153;50.960;6.220;2023-04-03T04:55:34;5.82;;;4.15;;
50267;SDS011;36153;50.960;6.220;2023-04-03T04:58:35;7.60;;;4.63;;
50267;SDS011;36153;50.960;6.220;2023-04-03T05:01:35;6.43;;;4.22;;
50267;SDS011;36153;50.960;6.220;2023-04-03T05:04:36;7.70;;;4.40;;
50267;SDS011;36153;50.960;6.220;2023-04-03T05:07:36;7.82;;;3.83;;
50267;SDS011;36153;50.960;6.220;2023-04-03T05:10:36;7.22;;;4.65;;
50267;SDS011;36153;50.960;6.220;2023-04-03T05:13:37;8.20;;;4.53;;
50267;SDS011;36153;50.960;6.220;2023-04-03T05:16:37;7.63;;;5.03;;
50267;SDS011;36153;50.960;6.220;2023-04-03T05:19:37;7.13;;;4.55;;
50267;SDS011;36153;50.960;6.220;2023-04-03T05:22:38;10.52;;;5.13;;
50267;SDS011;36153;50.960;6.220;2023-04-03T05:25:38;5.78;;;4.15;;
50267;SDS011;36153;50.960;6.220;2023-04-03T05:28:39;5.05;;;4.03;;
50267;SDS011;36153;50.960;6.220;2023-04-03T05:31:39;8.18;;;4.43;;
50267;SDS011;36153;50.960;6.220;2023-04-03T05:34:39;5.50;;;3.85;;
50267;SDS011;36153;50.960;6.220;2023-04-03T05:37:40;5.70;;;3.85;;
50267;SDS011;36153;50.960;6.220;2023-04-03T05:40:41;4.50;;;3.72;;
50267;SDS011;36153;50.960;6.220;2023-04-03T05:43:41;6.47;;;5.03;;
50267;SDS011;36153;50.960;6.220;2023-04-03T05:46:42;8.27;;;3.90;;
50267;SDS011;36153;50.960;6.220;2023-04-03T05:49:42;9.55;;;4.28;;
50267;SDS011;36153;50.960;6.220;2023-04-03T05:52:44;4.90;;;3.38;;
50267;SDS011;36153;50.960;6.220;2023-04-03T05:55:47;6.38;;;4.57;;
50267;SDS011;36153;50.960;6.220;2023-04-03T05:58:48;7.20;;;3.83;;
50267;SDS011;36153;50.960;6.220;2023-04-03T06:01:48;7.82;;;4.20;;
50267;SDS011;36153;50.960;6.220;2023-04-03T06:04:48;8.85;;;4.72;;
50267;SDS011;36153;50.960;6.220;2023-04-03T06:07:49;8.40;;;3.65;;
50267;SDS011;36153;50.960;6.220;2023-04-03T06:10:52;5.60;;;4.57;;
50267;SDS011;36153;50.960;6.220;2023-04-03T06:13:52;5.30;;;3.83;;
50267;SDS011;36153;50.960;6.220;2023-04-03T06:16:53;5.07;;;4.05;;
50267;SDS011;36153;50.960;6.220;2023-04-03T06:19:54;6.50;;;4.15;;
50267;SDS011;36153;50.960;6.220;2023-04-03T06:22:55;7.82;;;4.35;;
50267;SDS011;36153;50.960;6.220;2023-04-03T06:25:56;6.13;;;4.03;;
50267;SDS011;36153;50.960;6.220;2023-04-03T06:28:56;7.63;;;4.47;;
50267;SDS011;36153;50.960;6.220;2023-04-03T06:31:56;8.15;;;3.65;;
50267;SDS011;36153;50.960;6.220;2023-04-03T06:34:57;5.07;;;4.25;;
50267;SDS011;36153;50.960;6.220;2023-04-03T06:37:58;4.07;;;3.22;;
50267;SDS011;36153;50.960;6.220;2023-04-03T06:40:58;5.68;;;3.65;;
50267;SDS011;36153;50.960;6.220;2023-04-03T06:43:59;8.48;;;3.60;;
50267;SDS011;36153;50.960;6.220;2023-04-03T06:46:59;5.93;;;4.50;;
50267;SDS011;36153;50.960;6.220;2023-04-03T06:50:00;5.32;;;3.85;;
50267;SDS011;36153;50.960;6.220;2023-04-03T06:53:00;8.23;;;3.85;;
50267;SDS011;36153;50.960;6.220;2023-04-03T06:56:01;8.45;;;4.20;;
50267;SDS011;36153;50.960;6.220;2023-04-03T06:59:01;6.75;;;5.15;;
50267;SDS011;36153;50.960;6.220;2023-04-03T07:02:02;6.30;;;4.38;;
50267;SDS011;36153;50.960;6.220;2023-04-03T07:05:02;7.53;;;3.50;;
50267;SDS011;36153;50.960;6.220;2023-04-03T07:08:03;4.80;;;2.85;;
50267;SDS011;36153;50.960;6.220;2023-04-03T07:11:04;5.75;;;3.92;;
50267;SDS011;36153;50.960;6.220;2023-04-03T07:14:05;5.50;;;3.33;;
50267;SDS011;36153;50.960;6.220;2023-04-03T07:17:07;8.40;;;3.63;;
50267;SDS011;36153;50.960;6.220;2023-04-03T07:20:08;7.78;;;4.35;;
50267;SDS011;36153;50.960;6.220;2023-04-03T07:23:09;5.25;;;3.20;;
50267;SDS011;36153;50.960;6.220;2023-04-03T07:26:09;4.53;;;2.80;;
50267;SDS011;36153;50.960;6.220;2023-04-03T07:29:10;4.15;;;2.80;;
50267;SDS011;36153;50.960;6.220;2023-04-03T07:32:10;4.35;;;3.05;;
50267;SDS011;36153;50.960;6.220;2023-04-03T07:35:11;5.85;;;2.78;;
50267;SDS011;36153;50.960;6.220;2023-04-03T07:38:12;4.68;;;2.70;;
50267;SDS011;36153;50.960;6.220;2023-04-03T07:41:16;4.75;;;2.30;;
50267;SDS011;36153;50.960;6.220;2023-04-03T07:44:18;7.50;;;2.45;;
50267;SDS011;36153;50.960;6.220;2023-04-03T07:47:19;4.82;;;2.72;;
50267;SDS011;36153;50.960;6.220;2023-04-03T07:50:20;4.57;;;2.75;;
50267;SDS011;36153;50.960;6.220;2023-04-03T07:53:21;8.85;;;3.00;;
50267;SDS011;36153;50.960;6.220;2023-04-03T07:56:21;4.70;;;2.83;;
50267;SDS011;36153;50.960;6.220;2023-04-03T07:59:22;5.07;;;2.80;;
50267;SDS011;36153;50.960;6.220;2023-04-03T08:02:23;7.95;;;3.35;;
50267;SDS011;36153;50.960;6.220;2023-04-03T08:05:23;3.13;;;2.00;;
50267;SDS011;36153;50.960;6.220;2023-04-03T08:08:23;5.55;;;2.25;;
50267;SDS011;36153;50.960;6.220;2023-04-03T08:11:24;3.42;;;2.25;;
50267;SDS011;36153;50.960;6.220;2023-04-03T08:14:26;5.45;;;2.42;;
50267;SDS011;36153;50.960;6.220;2023-04-03T08:17:26;7.78;;;3.08;;
50267;SDS011;36153;50.960;6.220;2023-04-03T08:20:27;5.45;;;2.47;;
50267;SDS011;36153;50.960;6.220;2023-04-03T08:23:28;7.68;;;2.35;;
50267;SDS011;36153;50.960;6.220;2023-04-03T08:26:28;7.13;;;2.60;;
50267;SDS011;36153;50.960;6.220;2023-04-03T08:29:29;6.72;;;2.47;;
50267;SDS011;36153;50.960;6.220;2023-04-03T08:32:29;3.95;;;2.38;;
50267;SDS011;36153;50.960;6.220;2023-04-03T08:35:30;4.60;;;2.58;;
50267;SDS011;36153;50.960;6.220;2023-04-03T08:38:30;3.22;;;1.63;;
50267;SDS011;36153;50.960;6.220;2023-04-03T08:41:32;7.68;;;1.95;;
50267;SDS011;36153;50.960;6.220;2023-04-03T08:48:00;2.97;;;1.80;;
50267;SDS011;36153;50.960;6.220;2023-04-03T08:51:14;4.68;;;1.90;;
50267;SDS011;36153;50.960;6.220;2023-04-03T08:54:22;3.80;;;2.13;;
50267;SDS011;36153;50.960;6.220;2023-04-03T08:57:33;4.47;;;2.08;;
50267;SDS011;36153;50.960;6.220;2023-04-03T09:00:49;4.20;;;2.10;;
50267;SDS011;36153;50.960;6.220;2023-04-03T09:03:51;4.22;;;1.63;;
50267;SDS011;36153;50.960;6.220;2023-04-03T09:06:53;4.90;;;2.03;;
50267;SDS011;36153;50.960;6.220;2023-04-03T09:09:57;5.65;;;2.25;;
50267;SDS011;36153;50.960;6.220;2023-04-03T09:13:08;4.32;;;1.73;;
50267;SDS011;36153;50.960;6.220;2023-04-03T20:04:28;2.28;;;1.33;;
50267;SDS011;36153;50.960;6.220;2023-04-03T20:07:29;3.85;;;1.20;;
50267;SDS011;36153;50.960;6.220;2023-04-03T20:10:30;3.55;;;1.10;;
50267;SDS011;36153;50.960;6.220;2023-04-03T20:13:30;1.70;;;1.25;;
50267;SDS011;36153;50.960;6.220;2023-04-03T20:16:32;3.85;;;1.05;;
50267;SDS011;36153;50.960;6.220;2023-04-03T20:19:32;1.35;;;0.90;;
50267;SDS011;36153;50.960;6.220;2023-04-03T20:22:33;1.45;;;0.98;;
50267;SDS011;36153;50.960;6.220;2023-04-03T20:25:38;3.10;;;1.30;;
50267;SDS011;36153;50.960;6.220;2023-04-03T20:28:39;3.38;;;1.50;;
50267;SDS011;36153;50.960;6.220;2023-04-03T20:31:40;2.80;;;1.42;;
50267;SDS011;36153;50.960;6.220;2023-04-03T20:34:41;3.08;;;1.55;;
50267;SDS011;36153;50.960;6.220;2023-04-03T20:37:42;2.28;;;1.20;;
50267;SDS011;36153;50.960;6.220;2023-04-03T20:40:42;2.53;;;1.65;;
50267;SDS011;36153;50.960;6.220;2023-04-03T20:43:43;3.70;;;1.30;;
50267;SDS011;36153;50.960;6.220;2023-04-03T20:46:45;2.40;;;2.10;;
50267;SDS011;36153;50.960;6.220;2023-04-03T20:49:46;1.60;;;0.90;;
50267;SDS011;36153;50.960;6.220;2023-04-03T20:52:46;2.38;;;1.33;;
50267;SDS011;36153;50.960;6.220;2023-04-03T20:55:54;2.05;;;1.20;;
50267;SDS011;36153;50.960;6.220;2023-04-03T20:59:02;5.05;;;1.30;;
50267;SDS011;36153;50.960;6.220;2023-04-03T21:02:03;2.03;;;1.25;;
50267;SDS011;36153;50.960;6.220;2023-04-03T21:05:04;4.88;;;1.45;;
50267;SDS011;36153;50.960;6.220;2023-04-03T21:21:59;5.53;;;1.80;;
50267;SDS011;36153;50.960;6.220;2023-04-03T21:25:00;3.00;;;1.80;;
50267;SDS011;36153;50.960;6.220;2023-04-03T21:28:00;8.00;;;2.65;;
50267;SDS011;36153;50.960;6.220;2023-04-03T21:31:01;4.80;;;1.52;;
50267;SDS011;36153;50.960;6.220;2023-04-03T21:34:01;1.98;;;1.38;;
50267;SDS011;36153;50.960;6.220;2023-04-03T21:37:02;3.80;;;1.42;;
50267;SDS011;36153;50.960;6.220;2023-04-03T21:40:04;2.53;;;1.10;;
50267;SDS011;36153;50.960;6.220;2023-04-03T21:43:06;3.45;;;1.20;;
50267;SDS011;36153;50.960;6.220;2023-04-03T21:46:06;1.75;;;1.25;;
50267;SDS011;36153;50.960;6.220;2023-04-03T21:49:07;2.10;;;1.20;;
50267;SDS011;36153;50.960;6.220;2023-04-03T21:52:07;2.25;;;1.13;;
50267;SDS011;36153;50.960;6.220;2023-04-03T21:55:08;2.10;;;1.33;;
50267;SDS011;36153;50.960;6.220;2023-04-03T21:58:08;3.95;;;1.33;;
50267;SDS011;36153;50.960;6.220;2023-04-03T22:01:09;2.78;;;1.40;;
50267;SDS011;36153;50.960;6.220;2023-04-03T22:04:13;2.88;;;1.33;;
50267;SDS011;36153;50.960;6.220;2023-04-03T22:07:14;3.25;;;1.33;;
50267;SDS011;36153;50.960;6.220;2023-04-03T22:10:15;2.78;;;1.20;;
50267;SDS011;36153;50.960;6.220;2023-04-03T22:13:17;3.60;;;1.20;;
50267;SDS011;36153;50.960;6.220;2023-04-03T22:16:18;2.00;;;1.20;;
50267;SDS011;36153;50.960;6.220;2023-04-03T22:19:22;2.38;;;1.13;;
50267;SDS011;36153;50.960;6.220;2023-04-03T22:22:24;6.57;;;1.45;;
50267;SDS011;36153;50.960;6.220;2023-04-03T22:25:26;1.30;;;1.20;;
50267;SDS011;36153;50.960;6.220;2023-04-03T22:28:28;2.10;;;1.15;;
50267;SDS011;36153;50.960;6.220;2023-04-03T22:31:31;2.55;;;1.40;;
50267;SDS011;36153;50.960;6.220;2023-04-03T22:34:32;2.75;;;1.23;;
50267;SDS011;36153;50.960;6.220;2023-04-03T22:37:37;3.92;;;1.50;;
50267;SDS011;36153;50.960;6.220;2023-04-03T22:40:38;2.40;;;1.40;;
50267;SDS011;36153;50.960;6.220;2023-04-03T22:43:40;1.98;;;1.15;;
50267;SDS011;36153;50.960;6.220;2023-04-03T22:46:42;2.40;;;1.17;;
50267;SDS011;36153;50.960;6.220;2023-04-03T22:49:46;4.57;;;1.23;;
50267;SDS011;36153;50.960;6.220;2023-04-03T22:52:48;6.30;;;1.52;;
50267;SDS011;36153;50.960;6.220;2023-04-03T22:55:56;7.88;;;2.00;;
50267;SDS011;36153;50.960;6.220;2023-04-03T22:58:59;2.75;;;1.92;;
50267;SDS011;36153;50.960;6.220;2023-04-03T23:02:01;3.50;;;2.08;;
50267;SDS011;36153;50.960;6.220;2023-04-03T23:05:03;4.25;;;2.10;;
50267;SDS011;36153;50.960;6.220;2023-04-03T23:08:05;4.70;;;2.25;;
50267;SDS011;36153;50.960;6.220;2023-04-03T23:11:06;4.25;;;2.50;;
50267;SDS011;36153;50.960;6.220;2023-04-03T23:14:11;3.92;;;1.73;;
50267;SDS011;36153;50.960;6.220;2023-04-03T23:17:13;3.17;;;1.35;;
50267;SDS011;36153;50.960;6.220;2023-04-03T23:20:14;2.33;;;1.50;;
50267;SDS011;36153;50.960;6.220;2023-04-03T23:23:25;3.25;;;1.90;;
50267;SDS011;36153;50.960;6.220;2023-04-03T23:26:27;4.38;;;1.60;;
50267;SDS011;36153;50.960;6.220;2023-04-03T23:29:28;3.85;;;2.03;;
50267;SDS011;36153;50.960;6.220;2023-04-03T23:32:29;2.35;;;1.50;;
50267;SDS011;36153;50.960;6.220;2023-04-03T23:35:31;2.70;;;1.58;;
50267;SDS011;36153;50.960;6.220;2023-04-03T23:38:32;3.10;;;1.58;;
50267;SDS011;36153;50.960;6.220;2023-04-03T23:41:33;2.78;;;1.90;;
50267;SDS011;36153;50.960;6.220;2023-04-03T23:44:34;3.40;;;1.50;;
50267;SDS011;36153;50.960;6.220;2023-04-03T23:47:35;5.78;;;1.92;;
50267;SDS011;36153;50.960;6.220;2023-04-03T23:50:36;4.00;;;1.30;;
50267;SDS011;36153;50.960;6.220;2023-04-03T23:53:37;2.50;;;1.40;;
50267;SDS011;36153;50.960;6.220;2023-04-03T23:56:37;1.75;;;1.05;;
50267;SDS011;36153;50.960;6.220;2023-04-03T23:59:38;2.17;;;1.77;;
